Melinda Brent — WDC2606 — position and weather

sailwx.info

Track history (hours):
 
Tides and Currents Weather Stations Pressure Air Temp Water Temp Dewpoint Dewpoint Depression Visibility Wind Speed Wind Dir Waves Ship Positions

Melinda Brent

Owner: Kirby Inland Marine, LP, Houston, TX. More information available from US FCC via Universal Licensing System and Coast Guard Vessel Documentation Center.

Last reported at 2017-Nov-23 07:31 UTC. Time now 2017-Nov-23 07:46 UTC.
Position N 29°35' W 090°37'.

; draft 2.4 m.

Type: . MMSI: 366995520.

Date/timePositionNaut miles runAvg speedWind from/ knotsBaromVisibWave heightAir tempDewpointWater temp
2017-Nov-23 07:31N 29°35' W 090°37'0 0.0
2017-Nov-23 07:00N 29°35' W 090°37'0 0.0
2017-Nov-23 06:28N 29°35' W 090°37'0 0.0
2017-Nov-23 06:00N 29°35' W 090°37'0 0.0
2017-Nov-23 05:10N 29°35' W 090°37'0 0.0
2017-Nov-23 04:51N 29°35' W 090°37'0 0.0
2017-Nov-23 04:29N 29°35' W 090°37'0 0.0
2017-Nov-23 03:55N 29°35' W 090°37'0 0.0
2017-Nov-23 03:30N 29°35' W 090°37'0 0.0
2017-Nov-23 02:47N 29°35' W 090°37'0 0.0
2017-Nov-23 02:30N 29°35' W 090°37'0 0.0
2017-Nov-23 01:58N 29°35' W 090°37'0 0.0
2017-Nov-23 01:29N 29°35' W 090°37'0 0.0
2017-Nov-23 00:55N 29°35' W 090°37'0 0.0
2017-Nov-23 00:30N 29°35' W 090°37'0 0.0
2017-Nov-22 23:59N 29°35' W 090°37'0 0.0
2017-Nov-22 23:26N 29°35' W 090°37'0 0.0
2017-Nov-22 22:56N 29°35' W 090°37'0 0.0
2017-Nov-22 22:25N 29°35' W 090°37'0 0.0
2017-Nov-22 21:53N 29°35' W 090°37'0 0.0
2017-Nov-22 19:56N 29°35' W 090°37'0 0.0
2017-Nov-22 19:29N 29°35' W 090°37'  
2017-Nov-18 09:07N 31°43' W 091°24'18 7.5
2017-Nov-18 06:39N 31°58' W 091°11'6 7.5
2017-Nov-18 05:53N 32°00' W 091°05'3 7.9
2017-Nov-18 05:30N 32°03' W 091°03'5 7.6
2017-Nov-18 04:49N 32°07' W 091°07'2 6.6
2017-Nov-18 04:30N 32°08' W 091°04'3 6.4
2017-Nov-18 04:01N 32°08' W 091°00'4 7.8
2017-Nov-18 03:30N 32°12' W 090°59'4 8.0
2017-Nov-18 03:00N 32°16' W 090°58'3 6.9
2017-Nov-18 02:30N 32°18' W 090°55'0 0.4
2017-Nov-18 02:00N 32°18' W 090°55'0 0.0
2017-Nov-18 01:31N 32°18' W 090°55'0 0.0
2017-Nov-18 01:00N 32°18' W 090°55'0 0.0
2017-Nov-18 00:30N 32°18' W 090°55'0 0.0
2017-Nov-18 00:00N 32°18' W 090°55'0 0.0
2017-Nov-17 23:30N 32°18' W 090°55'0 0.0
2017-Nov-17 23:00N 32°18' W 090°55'0 0.0
2017-Nov-17 22:30N 32°18' W 090°55'0 0.0
2017-Nov-17 22:00N 32°18' W 090°55'0 0.5
2017-Nov-17 21:30N 32°18' W 090°55'2 4.9
2017-Nov-17 21:00N 32°21' W 090°55'4 8.9
2017-Nov-17 20:30N 32°22' W 091°00'4 8.1
2017-Nov-17 20:00N 32°26' W 091°02'5 9.8
2017-Nov-17 19:29N 32°28' W 091°07'5 9.4
2017-Nov-17 18:56N 32°34' W 091°06'  
Track history (hours):
 
Tides and Currents Weather Stations Pressure Air Temp Water Temp Dewpoint Dewpoint Depression Visibility Wind Speed Wind Dir Waves Ship Positions

Melinda Brent

Owner: Kirby Inland Marine, LP, Houston, TX. More information available from US FCC via Universal Licensing System and Coast Guard Vessel Documentation Center.

Last reported at 2017-Nov-23 07:31 UTC. Time now 2017-Nov-23 07:46 UTC.
Position N 29°35' W 090°37'.

; draft 2.4 m.

Type: . MMSI: 366995520.

Date/timePositionNaut miles runAvg speedWind from/ knotsBaromVisibWave heightAir tempDewpointWater temp
2017-Nov-23 07:31N 29°35' W 090°37'0 0.0
2017-Nov-23 07:00N 29°35' W 090°37'0 0.0
2017-Nov-23 06:28N 29°35' W 090°37'0 0.0
2017-Nov-23 06:00N 29°35' W 090°37'0 0.0
2017-Nov-23 05:10N 29°35' W 090°37'0 0.0
2017-Nov-23 04:51N 29°35' W 090°37'0 0.0
2017-Nov-23 04:29N 29°35' W 090°37'0 0.0
2017-Nov-23 03:55N 29°35' W 090°37'0 0.0
2017-Nov-23 03:30N 29°35' W 090°37'0 0.0
2017-Nov-23 02:47N 29°35' W 090°37'0 0.0
2017-Nov-23 02:30N 29°35' W 090°37'0 0.0
2017-Nov-23 01:58N 29°35' W 090°37'0 0.0
2017-Nov-23 01:29N 29°35' W 090°37'0 0.0
2017-Nov-23 00:55N 29°35' W 090°37'0 0.0
2017-Nov-23 00:30N 29°35' W 090°37'0 0.0
2017-Nov-22 23:59N 29°35' W 090°37'0 0.0
2017-Nov-22 23:26N 29°35' W 090°37'0 0.0
2017-Nov-22 22:56N 29°35' W 090°37'0 0.0
2017-Nov-22 22:25N 29°35' W 090°37'0 0.0
2017-Nov-22 21:53N 29°35' W 090°37'0 0.0
2017-Nov-22 19:56N 29°35' W 090°37'0 0.0
2017-Nov-22 19:29N 29°35' W 090°37'  
2017-Nov-18 09:07N 31°43' W 091°24'18 7.5
2017-Nov-18 06:39N 31°58' W 091°11'6 7.5
2017-Nov-18 05:53N 32°00' W 091°05'3 7.9
2017-Nov-18 05:30N 32°03' W 091°03'5 7.6
2017-Nov-18 04:49N 32°07' W 091°07'2 6.6
2017-Nov-18 04:30N 32°08' W 091°04'3 6.4
2017-Nov-18 04:01N 32°08' W 091°00'4 7.8
2017-Nov-18 03:30N 32°12' W 090°59'4 8.0
2017-Nov-18 03:00N 32°16' W 090°58'3 6.9
2017-Nov-18 02:30N 32°18' W 090°55'0 0.4
2017-Nov-18 02:00N 32°18' W 090°55'0 0.0
2017-Nov-18 01:31N 32°18' W 090°55'0 0.0
2017-Nov-18 01:00N 32°18' W 090°55'0 0.0
2017-Nov-18 00:30N 32°18' W 090°55'0 0.0
2017-Nov-18 00:00N 32°18' W 090°55'0 0.0
2017-Nov-17 23:30N 32°18' W 090°55'0 0.0
2017-Nov-17 23:00N 32°18' W 090°55'0 0.0
2017-Nov-17 22:30N 32°18' W 090°55'0 0.0
2017-Nov-17 22:00N 32°18' W 090°55'0 0.5
2017-Nov-17 21:30N 32°18' W 090°55'2 4.9
2017-Nov-17 21:00N 32°21' W 090°55'4 8.9
2017-Nov-17 20:30N 32°22' W 091°00'4 8.1
2017-Nov-17 20:00N 32°26' W 091°02'5 9.8
2017-Nov-17 19:29N 32°28' W 091°07'5 9.4
2017-Nov-17 18:56N 32°34' W 091°06'  

Dump ship's entire track history